sensor_id;sensor_type;location;lat;lon;timestamp;P1;durP1;ratioP1;P2;durP2;ratioP2
72275;SDS011;61204;49.980;8.358;2022-07-23T00:00:42;5.22;;;4.55;;
72275;SDS011;61204;49.980;8.358;2022-07-23T00:03:08;6.00;;;5.10;;
72275;SDS011;61204;49.980;8.358;2022-07-23T00:05:36;6.45;;;5.13;;
72275;SDS011;61204;49.980;8.358;2022-07-23T00:08:04;6.82;;;5.20;;
72275;SDS011;61204;49.980;8.358;2022-07-23T00:10:32;10.65;;;5.75;;
72275;SDS011;61204;49.980;8.358;2022-07-23T00:12:58;5.50;;;4.97;;
72275;SDS011;61204;49.980;8.358;2022-07-23T00:15:24;7.47;;;5.30;;
72275;SDS011;61204;49.980;8.358;2022-07-23T00:17:50;7.15;;;4.70;;
72275;SDS011;61204;49.980;8.358;2022-07-23T00:20:18;5.38;;;4.65;;
72275;SDS011;61204;49.980;8.358;2022-07-23T00:25:13;6.25;;;4.90;;
72275;SDS011;61204;49.980;8.358;2022-07-23T00:27:40;5.43;;;4.90;;
72275;SDS011;61204;49.980;8.358;2022-07-23T00:30:05;6.82;;;4.90;;
72275;SDS011;61204;49.980;8.358;2022-07-23T00:32:32;5.60;;;4.32;;
72275;SDS011;61204;49.980;8.358;2022-07-23T00:35:19;6.38;;;5.22;;
72275;SDS011;61204;49.980;8.358;2022-07-23T00:37:47;6.53;;;5.20;;
72275;SDS011;61204;49.980;8.358;2022-07-23T00:40:13;6.53;;;5.28;;
72275;SDS011;61204;49.980;8.358;2022-07-23T00:42:40;7.15;;;5.20;;
72275;SDS011;61204;49.980;8.358;2022-07-23T00:45:06;8.65;;;5.03;;
72275;SDS011;61204;49.980;8.358;2022-07-23T00:47:32;9.00;;;5.30;;
72275;SDS011;61204;49.980;8.358;2022-07-23T00:49:59;5.97;;;5.38;;
72275;SDS011;61204;49.980;8.358;2022-07-23T00:52:25;6.97;;;5.65;;
72275;SDS011;61204;49.980;8.358;2022-07-23T00:54:51;6.22;;;5.07;;
72275;SDS011;61204;49.980;8.358;2022-07-23T00:57:17;8.80;;;5.00;;
72275;SDS011;61204;49.980;8.358;2022-07-23T00:59:45;5.78;;;4.95;;
72275;SDS011;61204;49.980;8.358;2022-07-23T01:02:11;5.82;;;5.25;;
72275;SDS011;61204;49.980;8.358;2022-07-23T01:04:36;8.45;;;5.30;;
72275;SDS011;61204;49.980;8.358;2022-07-23T01:07:02;5.60;;;4.78;;
72275;SDS011;61204;49.980;8.358;2022-07-23T01:09:28;7.25;;;5.40;;
72275;SDS011;61204;49.980;8.358;2022-07-23T01:11:56;7.63;;;5.25;;
72275;SDS011;61204;49.980;8.358;2022-07-23T01:14:23;5.47;;;4.97;;
72275;SDS011;61204;49.980;8.358;2022-07-23T01:16:49;7.75;;;5.85;;
72275;SDS011;61204;49.980;8.358;2022-07-23T01:19:15;10.15;;;6.35;;
72275;SDS011;61204;49.980;8.358;2022-07-23T01:21:44;8.13;;;6.75;;
72275;SDS011;61204;49.980;8.358;2022-07-23T01:24:17;7.60;;;6.70;;
72275;SDS011;61204;49.980;8.358;2022-07-23T01:26:45;7.78;;;7.07;;
72275;SDS011;61204;49.980;8.358;2022-07-23T01:29:13;8.68;;;7.20;;
72275;SDS011;61204;49.980;8.358;2022-07-23T01:31:40;9.43;;;6.78;;
72275;SDS011;61204;49.980;8.358;2022-07-23T01:34:06;8.60;;;7.57;;
72275;SDS011;61204;49.980;8.358;2022-07-23T01:36:33;10.43;;;6.88;;
72275;SDS011;61204;49.980;8.358;2022-07-23T01:39:03;7.90;;;7.07;;
72275;SDS011;61204;49.980;8.358;2022-07-23T01:41:31;8.15;;;7.35;;
72275;SDS011;61204;49.980;8.358;2022-07-23T01:44:00;9.45;;;8.10;;
72275;SDS011;61204;49.980;8.358;2022-07-23T01:46:26;8.45;;;7.63;;
72275;SDS011;61204;49.980;8.358;2022-07-23T01:48:54;8.48;;;7.50;;
72275;SDS011;61204;49.980;8.358;2022-07-23T01:51:19;8.38;;;7.30;;
72275;SDS011;61204;49.980;8.358;2022-07-23T01:53:45;9.50;;;8.60;;
72275;SDS011;61204;49.980;8.358;2022-07-23T01:56:11;8.02;;;7.22;;
72275;SDS011;61204;49.980;8.358;2022-07-23T01:58:36;8.35;;;7.43;;
72275;SDS011;61204;49.980;8.358;2022-07-23T02:01:02;8.23;;;7.00;;
72275;SDS011;61204;49.980;8.358;2022-07-23T02:03:28;10.77;;;8.35;;
72275;SDS011;61204;49.980;8.358;2022-07-23T02:05:53;7.95;;;7.07;;
72275;SDS011;61204;49.980;8.358;2022-07-23T02:08:21;8.25;;;7.25;;
72275;SDS011;61204;49.980;8.358;2022-07-23T02:10:47;8.48;;;7.65;;
72275;SDS011;61204;49.980;8.358;2022-07-23T02:13:18;9.05;;;8.15;;
72275;SDS011;61204;49.980;8.358;2022-07-23T02:15:44;8.57;;;7.75;;
72275;SDS011;61204;49.980;8.358;2022-07-23T02:18:12;9.63;;;7.65;;
72275;SDS011;61204;49.980;8.358;2022-07-23T02:20:41;9.68;;;8.55;;
72275;SDS011;61204;49.980;8.358;2022-07-23T02:23:10;8.48;;;7.47;;
72275;SDS011;61204;49.980;8.358;2022-07-23T02:25:38;9.45;;;7.80;;
72275;SDS011;61204;49.980;8.358;2022-07-23T02:28:06;9.02;;;7.40;;
72275;SDS011;61204;49.980;8.358;2022-07-23T02:30:35;8.05;;;7.25;;
72275;SDS011;61204;49.980;8.358;2022-07-23T02:33:01;8.25;;;7.43;;
72275;SDS011;61204;49.980;8.358;2022-07-23T02:35:26;12.27;;;7.90;;
72275;SDS011;61204;49.980;8.358;2022-07-23T02:37:52;11.80;;;7.90;;
72275;SDS011;61204;49.980;8.358;2022-07-23T02:40:20;8.18;;;7.38;;
72275;SDS011;61204;49.980;8.358;2022-07-23T02:42:45;10.38;;;7.40;;
72275;SDS011;61204;49.980;8.358;2022-07-23T02:45:13;11.05;;;8.30;;
72275;SDS011;61204;49.980;8.358;2022-07-23T02:47:39;7.95;;;7.15;;
72275;SDS011;61204;49.980;8.358;2022-07-23T02:50:05;8.68;;;7.72;;
72275;SDS011;61204;49.980;8.358;2022-07-23T02:52:39;9.60;;;7.57;;
72275;SDS011;61204;49.980;8.358;2022-07-23T02:55:05;9.90;;;7.85;;
72275;SDS011;61204;49.980;8.358;2022-07-23T02:57:32;7.88;;;7.03;;
72275;SDS011;61204;49.980;8.358;2022-07-23T02:59:57;8.60;;;7.75;;
72275;SDS011;61204;49.980;8.358;2022-07-23T03:02:25;8.55;;;7.72;;
72275;SDS011;61204;49.980;8.358;2022-07-23T03:04:51;8.82;;;7.78;;
72275;SDS011;61204;49.980;8.358;2022-07-23T03:07:17;8.43;;;7.63;;
72275;SDS011;61204;49.980;8.358;2022-07-23T03:09:43;13.27;;;7.45;;
72275;SDS011;61204;49.980;8.358;2022-07-23T03:12:09;9.48;;;7.80;;
72275;SDS011;61204;49.980;8.358;2022-07-23T03:14:34;8.27;;;6.85;;
72275;SDS011;61204;49.980;8.358;2022-07-23T03:17:02;8.95;;;6.90;;
72275;SDS011;61204;49.980;8.358;2022-07-23T03:19:30;9.82;;;7.32;;
72275;SDS011;61204;49.980;8.358;2022-07-23T03:21:56;7.57;;;6.72;;
72275;SDS011;61204;49.980;8.358;2022-07-23T03:24:22;8.52;;;7.60;;
72275;SDS011;61204;49.980;8.358;2022-07-23T03:27:10;8.35;;;6.82;;
72275;SDS011;61204;49.980;8.358;2022-07-23T03:29:36;7.88;;;7.07;;
72275;SDS011;61204;49.980;8.358;2022-07-23T03:32:02;8.77;;;7.32;;
72275;SDS011;61204;49.980;8.358;2022-07-23T03:34:29;10.02;;;7.63;;
72275;SDS011;61204;49.980;8.358;2022-07-23T03:36:55;9.68;;;7.25;;
72275;SDS011;61204;49.980;8.358;2022-07-23T03:39:20;7.53;;;6.72;;
72275;SDS011;61204;49.980;8.358;2022-07-23T03:41:48;8.07;;;7.25;;
72275;SDS011;61204;49.980;8.358;2022-07-23T03:44:14;6.78;;;6.07;;
72275;SDS011;61204;49.980;8.358;2022-07-23T03:46:39;11.90;;;7.78;;
72275;SDS011;61204;49.980;8.358;2022-07-23T03:49:07;8.32;;;7.53;;
72275;SDS011;61204;49.980;8.358;2022-07-23T03:51:33;7.63;;;6.68;;
72275;SDS011;61204;49.980;8.358;2022-07-23T03:53:59;8.57;;;6.88;;
72275;SDS011;61204;49.980;8.358;2022-07-23T03:56:26;7.97;;;7.18;;
72275;SDS011;61204;49.980;8.358;2022-07-23T03:58:52;8.68;;;7.88;;
72275;SDS011;61204;49.980;8.358;2022-07-23T04:01:17;8.82;;;7.50;;
72275;SDS011;61204;49.980;8.358;2022-07-23T04:03:50;8.07;;;7.15;;
72275;SDS011;61204;49.980;8.358;2022-07-23T04:06:18;7.05;;;6.35;;
72275;SDS011;61204;49.980;8.358;2022-07-23T04:08:43;8.63;;;7.72;;
72275;SDS011;61204;49.980;8.358;2022-07-23T04:11:09;8.55;;;6.38;;
72275;SDS011;61204;49.980;8.358;2022-07-23T04:13:35;9.93;;;7.18;;
72275;SDS011;61204;49.980;8.358;2022-07-23T04:16:00;9.05;;;6.57;;
72275;SDS011;61204;49.980;8.358;2022-07-23T04:18:26;8.20;;;6.88;;
72275;SDS011;61204;49.980;8.358;2022-07-23T04:20:52;9.35;;;7.15;;
72275;SDS011;61204;49.980;8.358;2022-07-23T04:23:18;7.82;;;7.00;;
72275;SDS011;61204;49.980;8.358;2022-07-23T04:25:44;7.57;;;6.63;;
72275;SDS011;61204;49.980;8.358;2022-07-23T04:28:09;7.80;;;6.95;;
72275;SDS011;61204;49.980;8.358;2022-07-23T04:30:35;8.50;;;6.95;;
72275;SDS011;61204;49.980;8.358;2022-07-23T04:33:03;7.18;;;6.55;;
72275;SDS011;61204;49.980;8.358;2022-07-23T04:35:33;8.52;;;7.72;;
72275;SDS011;61204;49.980;8.358;2022-07-23T04:38:02;7.82;;;7.03;;
72275;SDS011;61204;49.980;8.358;2022-07-23T04:40:29;7.38;;;6.60;;
72275;SDS011;61204;49.980;8.358;2022-07-23T04:42:55;7.32;;;6.60;;
72275;SDS011;61204;49.980;8.358;2022-07-23T04:45:23;8.13;;;7.32;;
72275;SDS011;61204;49.980;8.358;2022-07-23T04:47:51;7.80;;;6.38;;
72275;SDS011;61204;49.980;8.358;2022-07-23T04:50:16;6.93;;;6.20;;
72275;SDS011;61204;49.980;8.358;2022-07-23T04:52:46;7.07;;;6.20;;
72275;SDS011;61204;49.980;8.358;2022-07-23T04:55:15;9.05;;;6.93;;
72275;SDS011;61204;49.980;8.358;2022-07-23T04:57:41;9.18;;;7.60;;
72275;SDS011;61204;49.980;8.358;2022-07-23T05:00:09;8.68;;;6.75;;
72275;SDS011;61204;49.980;8.358;2022-07-23T05:02:35;8.02;;;6.80;;
72275;SDS011;61204;49.980;8.358;2022-07-23T05:05:01;8.57;;;7.68;;
72275;SDS011;61204;49.980;8.358;2022-07-23T05:07:27;8.48;;;6.97;;
72275;SDS011;61204;49.980;8.358;2022-07-23T05:09:52;8.15;;;7.40;;
72275;SDS011;61204;49.980;8.358;2022-07-23T05:12:18;8.15;;;7.35;;
72275;SDS011;61204;49.980;8.358;2022-07-23T05:14:43;9.45;;;7.35;;
72275;SDS011;61204;49.980;8.358;2022-07-23T05:17:11;8.60;;;7.63;;
72275;SDS011;61204;49.980;8.358;2022-07-23T05:19:39;8.05;;;7.25;;
72275;SDS011;61204;49.980;8.358;2022-07-23T05:22:05;7.88;;;7.00;;
72275;SDS011;61204;49.980;8.358;2022-07-23T05:24:33;9.52;;;7.10;;
72275;SDS011;61204;49.980;8.358;2022-07-23T05:26:58;8.93;;;6.80;;
72275;SDS011;61204;49.980;8.358;2022-07-23T05:29:26;8.45;;;7.47;;
72275;SDS011;61204;49.980;8.358;2022-07-23T05:31:56;8.70;;;7.10;;
72275;SDS011;61204;49.980;8.358;2022-07-23T05:34:22;8.32;;;6.57;;
72275;SDS011;61204;49.980;8.358;2022-07-23T05:36:50;7.55;;;6.80;;
72275;SDS011;61204;49.980;8.358;2022-07-23T05:39:18;10.35;;;7.25;;
72275;SDS011;61204;49.980;8.358;2022-07-23T05:41:43;7.97;;;6.40;;
72275;SDS011;61204;49.980;8.358;2022-07-23T05:44:11;8.30;;;7.38;;
72275;SDS011;61204;49.980;8.358;2022-07-23T05:46:39;7.70;;;6.90;;
72275;SDS011;61204;49.980;8.358;2022-07-23T05:49:05;7.35;;;6.40;;
72275;SDS011;61204;49.980;8.358;2022-07-23T05:51:40;7.78;;;6.97;;
72275;SDS011;61204;49.980;8.358;2022-07-23T05:54:06;8.65;;;6.43;;
72275;SDS011;61204;49.980;8.358;2022-07-23T05:56:31;7.72;;;6.90;;
72275;SDS011;61204;49.980;8.358;2022-07-23T05:58:57;6.95;;;6.13;;
72275;SDS011;61204;49.980;8.358;2022-07-23T06:01:22;9.02;;;6.68;;
72275;SDS011;61204;49.980;8.358;2022-07-23T06:03:48;9.07;;;6.05;;
72275;SDS011;61204;49.980;8.358;2022-07-23T06:06:16;6.80;;;6.10;;
72275;SDS011;61204;49.980;8.358;2022-07-23T06:08:42;6.35;;;5.68;;
72275;SDS011;61204;49.980;8.358;2022-07-23T06:11:07;6.45;;;5.88;;
72275;SDS011;61204;49.980;8.358;2022-07-23T06:13:33;5.55;;;5.05;;
72275;SDS011;61204;49.980;8.358;2022-07-23T06:15:59;7.43;;;5.55;;
72275;SDS011;61204;49.980;8.358;2022-07-23T06:18:25;5.97;;;5.10;;
72275;SDS011;61204;49.980;8.358;2022-07-23T06:20:50;5.97;;;5.45;;
72275;SDS011;61204;49.980;8.358;2022-07-23T06:23:16;4.90;;;4.50;;
72275;SDS011;61204;49.980;8.358;2022-07-23T06:25:44;5.47;;;4.90;;
72275;SDS011;61204;49.980;8.358;2022-07-23T06:28:09;5.70;;;5.10;;
72275;SDS011;61204;49.980;8.358;2022-07-23T06:30:37;6.40;;;5.03;;
72275;SDS011;61204;49.980;8.358;2022-07-23T06:33:03;6.20;;;5.10;;
72275;SDS011;61204;49.980;8.358;2022-07-23T06:35:30;6.03;;;5.10;;
72275;SDS011;61204;49.980;8.358;2022-07-23T06:37:59;5.88;;;4.85;;
72275;SDS011;61204;49.980;8.358;2022-07-23T06:40:25;6.53;;;5.18;;
72275;SDS011;61204;49.980;8.358;2022-07-23T06:42:53;5.88;;;5.38;;
72275;SDS011;61204;49.980;8.358;2022-07-23T06:45:18;6.18;;;5.57;;
72275;SDS011;61204;49.980;8.358;2022-07-23T06:47:44;5.97;;;5.47;;
72275;SDS011;61204;49.980;8.358;2022-07-23T06:50:10;6.35;;;5.75;;
72275;SDS011;61204;49.980;8.358;2022-07-23T06:52:47;7.28;;;5.18;;
72275;SDS011;61204;49.980;8.358;2022-07-23T06:55:12;5.88;;;5.05;;
72275;SDS011;61204;49.980;8.358;2022-07-23T06:57:38;6.82;;;5.32;;
72275;SDS011;61204;49.980;8.358;2022-07-23T07:00:04;6.15;;;5.50;;
72275;SDS011;61204;49.980;8.358;2022-07-23T07:02:33;6.68;;;6.05;;
72275;SDS011;61204;49.980;8.358;2022-07-23T07:04:58;6.22;;;5.60;;
72275;SDS011;61204;49.980;8.358;2022-07-23T07:07:24;5.93;;;5.32;;
72275;SDS011;61204;49.980;8.358;2022-07-23T07:09:54;6.35;;;5.35;;
72275;SDS011;61204;49.980;8.358;2022-07-23T07:12:20;6.47;;;5.78;;
72275;SDS011;61204;49.980;8.358;2022-07-23T07:14:48;6.25;;;5.30;;
72275;SDS011;61204;49.980;8.358;2022-07-23T07:17:14;7.05;;;4.75;;
72275;SDS011;61204;49.980;8.358;2022-07-23T07:19:40;5.47;;;4.97;;
72275;SDS011;61204;49.980;8.358;2022-07-23T07:22:06;5.32;;;4.80;;
72275;SDS011;61204;49.980;8.358;2022-07-23T07:24:31;5.70;;;4.95;;
72275;SDS011;61204;49.980;8.358;2022-07-23T07:27:00;6.40;;;5.15;;
72275;SDS011;61204;49.980;8.358;2022-07-23T07:29:25;6.93;;;5.22;;
72275;SDS011;61204;49.980;8.358;2022-07-23T07:31:52;5.90;;;4.25;;
72275;SDS011;61204;49.980;8.358;2022-07-23T07:34:17;4.82;;;4.32;;
72275;SDS011;61204;49.980;8.358;2022-07-23T07:36:43;5.07;;;4.68;;
72275;SDS011;61204;49.980;8.358;2022-07-23T07:39:09;6.07;;;5.47;;
72275;SDS011;61204;49.980;8.358;2022-07-23T07:41:35;5.78;;;5.28;;
72275;SDS011;61204;49.980;8.358;2022-07-23T07:44:01;6.95;;;5.93;;
72275;SDS011;61204;49.980;8.358;2022-07-23T07:46:29;5.82;;;4.75;;
72275;SDS011;61204;49.980;8.358;2022-07-23T07:49:01;6.00;;;5.40;;
72275;SDS011;61204;49.980;8.358;2022-07-23T07:51:33;5.32;;;4.82;;
72275;SDS011;61204;49.980;8.358;2022-07-23T07:53:59;6.03;;;5.22;;
72275;SDS011;61204;49.980;8.358;2022-07-23T07:56:26;5.65;;;5.13;;
72275;SDS011;61204;49.980;8.358;2022-07-23T07:58:52;6.60;;;4.57;;
72275;SDS011;61204;49.980;8.358;2022-07-23T08:01:17;8.18;;;4.95;;
72275;SDS011;61204;49.980;8.358;2022-07-23T08:03:44;6.22;;;5.60;;
72275;SDS011;61204;49.980;8.358;2022-07-23T08:06:11;6.13;;;5.50;;
72275;SDS011;61204;49.980;8.358;2022-07-23T08:08:39;5.95;;;4.95;;
72275;SDS011;61204;49.980;8.358;2022-07-23T08:11:04;5.35;;;4.32;;
72275;SDS011;61204;49.980;8.358;2022-07-23T08:13:30;5.95;;;5.38;;
72275;SDS011;61204;49.980;8.358;2022-07-23T08:15:55;5.28;;;4.70;;
72275;SDS011;61204;49.980;8.358;2022-07-23T08:18:21;5.25;;;4.72;;
72275;SDS011;61204;49.980;8.358;2022-07-23T08:20:49;8.43;;;4.93;;
72275;SDS011;61204;49.980;8.358;2022-07-23T08:23:15;5.43;;;4.88;;
72275;SDS011;61204;49.980;8.358;2022-07-23T08:25:44;5.90;;;5.15;;
72275;SDS011;61204;49.980;8.358;2022-07-23T08:28:14;5.95;;;5.45;;
72275;SDS011;61204;49.980;8.358;2022-07-23T08:30:41;7.63;;;4.97;;
72275;SDS011;61204;49.980;8.358;2022-07-23T08:33:15;6.05;;;5.45;;
72275;SDS011;61204;49.980;8.358;2022-07-23T08:35:49;5.65;;;5.15;;
72275;SDS011;61204;49.980;8.358;2022-07-23T08:38:18;5.85;;;5.13;;
72275;SDS011;61204;49.980;8.358;2022-07-23T08:40:48;6.55;;;5.00;;
72275;SDS011;61204;49.980;8.358;2022-07-23T08:43:19;5.50;;;4.97;;
72275;SDS011;61204;49.980;8.358;2022-07-23T08:45:51;7.50;;;4.78;;
72275;SDS011;61204;49.980;8.358;2022-07-23T08:48:27;7.10;;;4.75;;
72275;SDS011;61204;49.980;8.358;2022-07-23T08:50:59;5.18;;;4.70;;
72275;SDS011;61204;49.980;8.358;2022-07-23T08:53:28;6.93;;;4.78;;
72275;SDS011;61204;49.980;8.358;2022-07-23T08:55:58;5.82;;;4.50;;
72275;SDS011;61204;49.980;8.358;2022-07-23T08:58:27;5.05;;;4.55;;
72275;SDS011;61204;49.980;8.358;2022-07-23T09:00:56;5.22;;;4.35;;
72275;SDS011;61204;49.980;8.358;2022-07-23T09:03:25;7.60;;;4.75;;
72275;SDS011;61204;49.980;8.358;2022-07-23T09:06:01;5.25;;;4.25;;
72275;SDS011;61204;49.980;8.358;2022-07-23T09:08:35;5.10;;;4.57;;
72275;SDS011;61204;49.980;8.358;2022-07-23T09:11:12;7.28;;;4.18;;
72275;SDS011;61204;49.980;8.358;2022-07-23T09:18:59;4.70;;;4.22;;
72275;SDS011;61204;49.980;8.358;2022-07-23T09:21:35;5.00;;;4.43;;
72275;SDS011;61204;49.980;8.358;2022-07-23T09:26:37;4.70;;;3.92;;
72275;SDS011;61204;49.980;8.358;2022-07-23T09:29:13;4.30;;;3.90;;
72275;SDS011;61204;49.980;8.358;2022-07-23T09:31:55;5.88;;;3.60;;
72275;SDS011;61204;49.980;8.358;2022-07-23T09:34:33;5.38;;;4.85;;
72275;SDS011;61204;49.980;8.358;2022-07-23T09:37:11;5.05;;;4.03;;
72275;SDS011;61204;49.980;8.358;2022-07-23T09:39:43;5.75;;;4.18;;
72275;SDS011;61204;49.980;8.358;2022-07-23T09:42:16;4.32;;;3.80;;
72275;SDS011;61204;49.980;8.358;2022-07-23T09:44:48;5.10;;;4.55;;
72275;SDS011;61204;49.980;8.358;2022-07-23T09:47:20;4.47;;;3.90;;
72275;SDS011;61204;49.980;8.358;2022-07-23T09:52:47;5.88;;;4.10;;
72275;SDS011;61204;49.980;8.358;2022-07-23T09:55:18;4.50;;;3.90;;
72275;SDS011;61204;49.980;8.358;2022-07-23T09:57:44;4.20;;;3.72;;
72275;SDS011;61204;49.980;8.358;2022-07-23T10:00:21;6.35;;;3.22;;
72275;SDS011;61204;49.980;8.358;2022-07-23T10:02:49;4.35;;;3.80;;
72275;SDS011;61204;49.980;8.358;2022-07-23T10:05:16;3.95;;;3.58;;
72275;SDS011;61204;49.980;8.358;2022-07-23T10:07:44;4.32;;;3.78;;
72275;SDS011;61204;49.980;8.358;2022-07-23T10:10:13;3.97;;;3.53;;
72275;SDS011;61204;49.980;8.358;2022-07-23T10:12:41;3.97;;;3.55;;
72275;SDS011;61204;49.980;8.358;2022-07-23T10:15:15;3.67;;;3.17;;
72275;SDS011;61204;49.980;8.358;2022-07-23T10:17:42;4.03;;;3.40;;
72275;SDS011;61204;49.980;8.358;2022-07-23T10:20:12;3.88;;;3.50;;
72275;SDS011;61204;49.980;8.358;2022-07-23T10:22:40;10.13;;;4.40;;
72275;SDS011;61204;49.980;8.358;2022-07-23T10:34:21;4.95;;;3.22;;
72275;SDS011;61204;49.980;8.358;2022-07-23T10:42:37;5.03;;;3.40;;
72275;SDS011;61204;49.980;8.358;2022-07-23T10:48:18;16.13;;;4.43;;
72275;SDS011;61204;49.980;8.358;2022-07-23T10:51:07;5.85;;;3.72;;
72275;SDS011;61204;49.980;8.358;2022-07-23T10:59:22;5.82;;;3.72;;
72275;SDS011;61204;49.980;8.358;2022-07-23T11:01:48;4.00;;;3.35;;
72275;SDS011;61204;49.980;8.358;2022-07-23T11:04:15;4.18;;;3.55;;
72275;SDS011;61204;49.980;8.358;2022-07-23T11:09:27;3.95;;;3.65;;
72275;SDS011;61204;49.980;8.358;2022-07-23T11:20:29;5.43;;;3.60;;
72275;SDS011;61204;49.980;8.358;2022-07-23T11:22:56;5.38;;;4.25;;
72275;SDS011;61204;49.980;8.358;2022-07-23T11:27:53;3.83;;;3.45;;
72275;SDS011;61204;49.980;8.358;2022-07-23T11:32:52;4.50;;;3.80;;
72275;SDS011;61204;49.980;8.358;2022-07-23T11:35:33;5.38;;;3.75;;
72275;SDS011;61204;49.980;8.358;2022-07-23T11:40:38;5.25;;;3.78;;
72275;SDS011;61204;49.980;8.358;2022-07-23T11:43:06;4.15;;;3.67;;
72275;SDS011;61204;49.980;8.358;2022-07-23T11:48:16;5.38;;;3.60;;
72275;SDS011;61204;49.980;8.358;2022-07-23T11:50:50;4.15;;;3.75;;
72275;SDS011;61204;49.980;8.358;2022-07-23T11:53:22;4.28;;;3.78;;
72275;SDS011;61204;49.980;8.358;2022-07-23T11:56:03;4.75;;;3.33;;
72275;SDS011;61204;49.980;8.358;2022-07-23T11:58:39;4.97;;;3.83;;
72275;SDS011;61204;49.980;8.358;2022-07-23T12:01:20;4.68;;;3.70;;
72275;SDS011;61204;49.980;8.358;2022-07-23T12:03:52;6.15;;;3.55;;
72275;SDS011;61204;49.980;8.358;2022-07-23T12:06:18;5.47;;;3.40;;
72275;SDS011;61204;49.980;8.358;2022-07-23T12:08:50;9.68;;;3.95;;
72275;SDS011;61204;49.980;8.358;2022-07-23T12:11:16;3.90;;;3.53;;
72275;SDS011;61204;49.980;8.358;2022-07-23T12:13:41;5.18;;;4.00;;
72275;SDS011;61204;49.980;8.358;2022-07-23T12:16:07;5.03;;;3.90;;
72275;SDS011;61204;49.980;8.358;2022-07-23T12:18:33;5.22;;;3.88;;
72275;SDS011;61204;49.980;8.358;2022-07-23T12:21:02;4.60;;;3.60;;
72275;SDS011;61204;49.980;8.358;2022-07-23T12:23:31;4.47;;;3.67;;
72275;SDS011;61204;49.980;8.358;2022-07-23T12:26:00;5.13;;;3.60;;
72275;SDS011;61204;49.980;8.358;2022-07-23T12:28:29;3.80;;;3.40;;
72275;SDS011;61204;49.980;8.358;2022-07-23T12:30:58;4.72;;;3.47;;
72275;SDS011;61204;49.980;8.358;2022-07-23T12:33:26;4.85;;;3.38;;
72275;SDS011;61204;49.980;8.358;2022-07-23T12:36:02;4.65;;;3.70;;
72275;SDS011;61204;49.980;8.358;2022-07-23T12:38:37;5.32;;;3.47;;
72275;SDS011;61204;49.980;8.358;2022-07-23T12:41:09;3.53;;;3.22;;
72275;SDS011;61204;49.980;8.358;2022-07-23T12:43:38;4.70;;;2.88;;
72275;SDS011;61204;49.980;8.358;2022-07-23T12:53:50;4.30;;;3.30;;
72275;SDS011;61204;49.980;8.358;2022-07-23T12:56:40;3.17;;;2.88;;
72275;SDS011;61204;49.980;8.358;2022-07-23T12:59:11;5.32;;;3.20;;
72275;SDS011;61204;49.980;8.358;2022-07-23T13:01:53;6.40;;;3.45;;
72275;SDS011;61204;49.980;8.358;2022-07-23T13:04:24;4.03;;;3.72;;
72275;SDS011;61204;49.980;8.358;2022-07-23T13:06:52;3.97;;;3.38;;
72275;SDS011;61204;49.980;8.358;2022-07-23T13:09:27;4.25;;;3.35;;
72275;SDS011;61204;49.980;8.358;2022-07-23T13:11:56;5.00;;;4.05;;
72275;SDS011;61204;49.980;8.358;2022-07-23T13:14:24;4.20;;;3.38;;
72275;SDS011;61204;49.980;8.358;2022-07-23T13:16:51;4.82;;;3.60;;
72275;SDS011;61204;49.980;8.358;2022-07-23T13:19:21;7.35;;;4.10;;
72275;SDS011;61204;49.980;8.358;2022-07-23T13:21:48;4.35;;;3.70;;
72275;SDS011;61204;49.980;8.358;2022-07-23T13:24:14;3.70;;;3.33;;
72275;SDS011;61204;49.980;8.358;2022-07-23T13:26:45;5.10;;;3.28;;
72275;SDS011;61204;49.980;8.358;2022-07-23T13:29:15;5.13;;;3.58;;
72275;SDS011;61204;49.980;8.358;2022-07-23T13:31:41;5.32;;;3.90;;
72275;SDS011;61204;49.980;8.358;2022-07-23T13:34:06;6.18;;;3.80;;
72275;SDS011;61204;49.980;8.358;2022-07-23T13:36:32;4.18;;;3.47;;
72275;SDS011;61204;49.980;8.358;2022-07-23T13:38:57;3.80;;;3.50;;
72275;SDS011;61204;49.980;8.358;2022-07-23T13:41:23;4.15;;;3.70;;
72275;SDS011;61204;49.980;8.358;2022-07-23T13:43:49;4.50;;;3.60;;
72275;SDS011;61204;49.980;8.358;2022-07-23T13:46:15;4.18;;;3.80;;
72275;SDS011;61204;49.980;8.358;2022-07-23T13:48:40;4.70;;;3.88;;
72275;SDS011;61204;49.980;8.358;2022-07-23T13:51:07;4.15;;;3.40;;
72275;SDS011;61204;49.980;8.358;2022-07-23T13:53:32;4.30;;;3.10;;
72275;SDS011;61204;49.980;8.358;2022-07-23T13:55:58;4.63;;;3.50;;
72275;SDS011;61204;49.980;8.358;2022-07-23T13:58:24;4.15;;;3.67;;
72275;SDS011;61204;49.980;8.358;2022-07-23T14:00:50;3.92;;;3.53;;
72275;SDS011;61204;49.980;8.358;2022-07-23T14:03:19;5.13;;;3.70;;
72275;SDS011;61204;49.980;8.358;2022-07-23T14:05:50;4.25;;;3.50;;
72275;SDS011;61204;49.980;8.358;2022-07-23T14:08:18;3.45;;;3.00;;
72275;SDS011;61204;49.980;8.358;2022-07-23T14:10:44;4.13;;;3.30;;
72275;SDS011;61204;49.980;8.358;2022-07-23T14:13:10;4.70;;;3.60;;
72275;SDS011;61204;49.980;8.358;2022-07-23T14:15:35;4.10;;;3.70;;
72275;SDS011;61204;49.980;8.358;2022-07-23T14:18:03;5.13;;;3.28;;
72275;SDS011;61204;49.980;8.358;2022-07-23T14:20:29;4.22;;;3.75;;
72275;SDS011;61204;49.980;8.358;2022-07-23T14:22:57;4.45;;;3.72;;
72275;SDS011;61204;49.980;8.358;2022-07-23T14:25:25;4.85;;;3.58;;
72275;SDS011;61204;49.980;8.358;2022-07-23T14:27:51;4.93;;;4.05;;
72275;SDS011;61204;49.980;8.358;2022-07-23T14:30:18;6.15;;;3.70;;
72275;SDS011;61204;49.980;8.358;2022-07-23T14:32:44;7.38;;;3.95;;
72275;SDS011;61204;49.980;8.358;2022-07-23T14:35:09;5.65;;;3.53;;
72275;SDS011;61204;49.980;8.358;2022-07-23T14:37:35;3.90;;;3.50;;
72275;SDS011;61204;49.980;8.358;2022-07-23T14:40:00;3.55;;;3.25;;
72275;SDS011;61204;49.980;8.358;2022-07-23T14:42:27;4.05;;;3.53;;
72275;SDS011;61204;49.980;8.358;2022-07-23T14:44:56;4.53;;;3.75;;
72275;SDS011;61204;49.980;8.358;2022-07-23T14:47:21;4.82;;;4.00;;
72275;SDS011;61204;49.980;8.358;2022-07-23T14:49:47;6.70;;;3.95;;
72275;SDS011;61204;49.980;8.358;2022-07-23T14:52:16;4.35;;;3.45;;
72275;SDS011;61204;49.980;8.358;2022-07-23T14:54:42;4.88;;;3.78;;
72275;SDS011;61204;49.980;8.358;2022-07-23T14:57:07;6.03;;;3.60;;
72275;SDS011;61204;49.980;8.358;2022-07-23T14:59:34;4.13;;;3.72;;
72275;SDS011;61204;49.980;8.358;2022-07-23T15:02:00;3.88;;;3.58;;
72275;SDS011;61204;49.980;8.358;2022-07-23T15:04:28;4.00;;;3.60;;
72275;SDS011;61204;49.980;8.358;2022-07-23T15:06:54;4.10;;;3.45;;
72275;SDS011;61204;49.980;8.358;2022-07-23T15:09:19;3.85;;;3.47;;
72275;SDS011;61204;49.980;8.358;2022-07-23T15:11:45;4.38;;;3.78;;
72275;SDS011;61204;49.980;8.358;2022-07-23T15:14:13;4.50;;;3.60;;
72275;SDS011;61204;49.980;8.358;2022-07-23T15:16:39;4.28;;;3.85;;
72275;SDS011;61204;49.980;8.358;2022-07-23T15:19:05;4.10;;;3.50;;
72275;SDS011;61204;49.980;8.358;2022-07-23T15:21:30;4.55;;;3.65;;
72275;SDS011;61204;49.980;8.358;2022-07-23T15:23:56;7.90;;;3.75;;
72275;SDS011;61204;49.980;8.358;2022-07-23T15:26:26;8.07;;;3.42;;
72275;SDS011;61204;49.980;8.358;2022-07-23T15:28:54;3.78;;;3.30;;
72275;SDS011;61204;49.980;8.358;2022-07-23T15:31:21;5.18;;;3.60;;
72275;SDS011;61204;49.980;8.358;2022-07-23T15:33:51;4.30;;;3.22;;
72275;SDS011;61204;49.980;8.358;2022-07-23T15:36:18;3.25;;;2.95;;
72275;SDS011;61204;49.980;8.358;2022-07-23T15:38:46;3.20;;;2.88;;
72275;SDS011;61204;49.980;8.358;2022-07-23T15:41:12;5.88;;;3.53;;
72275;SDS011;61204;49.980;8.358;2022-07-23T15:43:38;3.78;;;2.80;;
72275;SDS011;61204;49.980;8.358;2022-07-23T15:46:07;4.72;;;3.20;;
72275;SDS011;61204;49.980;8.358;2022-07-23T15:48:36;3.63;;;3.30;;
72275;SDS011;61204;49.980;8.358;2022-07-23T15:51:03;4.00;;;3.60;;
72275;SDS011;61204;49.980;8.358;2022-07-23T15:53:30;4.60;;;3.20;;
72275;SDS011;61204;49.980;8.358;2022-07-23T15:55:57;5.32;;;3.30;;
72275;SDS011;61204;49.980;8.358;2022-07-23T15:58:23;4.80;;;3.15;;